Flight Track Log - Related Links

Times and Time Zones

All times are in EDT time to prevent confusion due to time zone crossing. See the UAL6285 flight status page for this flight to view local times or setup timezone preferences in your user account.

Time Position Orientation Groundspeed Altitude Reporting Facility
EDT Latitude Longitude Course Direction KTS MPH feet Rate Location/Type
Tue 08:48:47 AM 42.4039 -122.8875 124° Southeast 170 196 2,600  Level Seattle Center
Tue 08:49:48 AM 42.4525 -122.9039 346° North 186 214 5,000 2,182 Climbing Seattle Center
Tue 08:50:48 AM 42.5086 -122.9261 344° North 210 242 7,000 1,450 Climbing Seattle Center
Tue 08:51:00 AM 42.3504 -122.6010 120° Southeast  Level FlightAware Approximate
Tue 08:51:48 AM 42.5683 -122.8969 20° North 278 320 7,900  Level Seattle Center
Tue 08:52:00 AM 42.3026 -122.4598 121° Southeast  Level FlightAware Approximate
Tue 08:52:49 AM 42.5706 -122.7897 88° East 288 331 9,900  Level Seattle Center
Tue 08:53:00 AM 42.2513 -122.3193 124° Southeast  Level FlightAware Approximate
Tue 08:53:49 AM 42.5686 -122.6808 91° East 290 334 11,900  Level Seattle Center
Tue 08:54:49 AM 42.5658 -122.5714 92° East 290 334 13,800 1,884 Climbing Seattle Center
Tue 08:55:50 AM 42.5642 -122.4608 91° East 294 338 15,700 1,587 Climbing Seattle Center
Tue 08:56:50 AM 42.5608 -122.3481 92° East 298 343 17,000 1,438 Climbing Seattle Center
Tue 08:57:51 AM 42.5581 -122.2311 92° East 310 357 18,600 1,140 Climbing Seattle Center
Tue 08:58:51 AM 42.5544 -122.1086 92° East 320 368 19,300 950 Climbing Seattle Center
Tue 08:59:51 AM 42.5506 -121.9822 92° East 332 382 20,500 1,091 Climbing Seattle Center
Tue 09:00:52 AM 42.5469 -121.8544 92° East 337 388 21,500 893 Climbing Seattle Center
Tue 09:01:52 AM 42.5439 -121.7211 92° East 349 402 22,300 800 Climbing Seattle Center
Tue 09:02:52 AM 42.5394 -121.5847 92° East 358 412 23,100 595 Climbing Seattle Center
Tue 09:03:53 AM 42.5347 -121.4422 93° East 374 430 23,500 645 Climbing Seattle Center
Tue 09:04:53 AM 42.5303 -121.2944 92° East 388 447 24,400 744 Climbing Seattle Center
Tue 09:05:54 AM 42.5261 -121.1450 92° East 397 457 25,000 694 Climbing Seattle Center
Tue 09:06:54 AM 42.5208 -120.9944 93° East 399 459 25,800 650 Climbing Seattle Center
Tue 09:07:54 AM 42.5150 -120.8414 93° East 406 467 26,300 496 Climbing Seattle Center
Tue 09:08:55 AM 42.5097 -120.6856 93° East 413 475 26,800 545 Climbing Seattle Center
Tue 09:09:55 AM 42.5039 -120.5303 93° East 414 476 27,400 545 Climbing Seattle Center
Tue 09:10:56 AM 42.4983 -120.3736 93° East 417 480 27,900 397 Climbing Seattle Center
Tue 09:11:56 AM 42.4911 -120.2167 94° East 417 480 28,200 347 Climbing Seattle Center
Tue 09:12:57 AM 42.4858 -120.0583 93° East 421 484 28,600 347 Climbing Seattle Center
Tue 09:13:57 AM 42.4761 -119.8622 94° East 433 498 28,900 496 Climbing Seattle Center
Tue 09:14:58 AM 42.4683 -119.7008 94° East 431 496 29,600 541 Climbing Seattle Center
Tue 09:15:59 AM 42.4597 -119.5439 94° East 420 483 30,000 298 Climbing Seattle Center
Tue 09:16:59 AM 42.4514 -119.3839 94° East 426 490 30,200 198 Climbing Seattle Center
Tue 09:18:00 AM 42.4442 -119.2217 93° East 433 498 30,400 200 Climbing Seattle Center
Tue 09:18:59 AM 42.4386 -119.0819 93° East 434 499 30,600 200 Climbing Salt Lake Center
Tue 09:20:00 AM 42.4300 -118.9172 94° East 440 506 30,800 197 Climbing Salt Lake Center
Tue 09:21:01 AM 42.4192 -118.7228 94° East 445 512 31,000 293 Climbing Salt Lake Center
Tue 09:22:03 AM 42.4103 -118.5642 94° East 444 511 31,400 439 Climbing Salt Lake Center
Tue 09:23:04 AM 42.3994 -118.3803 94° East 440 506 31,900 393 Climbing Salt Lake Center
Tue 09:24:05 AM 42.3906 -118.2225 94° East 439 505 32,200 344 Climbing Salt Lake Center
Tue 09:25:06 AM 42.3800 -118.0572 95° East 438 504 32,600 393 Climbing Salt Lake Center
Tue 09:26:07 AM 42.3714 -117.9017 94° East 434 499 33,000 197 Climbing Salt Lake Center
Tue 09:27:08 AM 42.3597 -117.7228 95° East 434 499 33,000  Level Salt Lake Center
Tue 09:28:10 AM 42.3494 -117.5664 95° East 436 502 33,000  Level Salt Lake Center
Tue 09:29:11 AM 42.3364 -117.3786 95° East 448 516 33,000  Level Salt Lake Center
Tue 09:30:12 AM 42.3256 -117.2181 95° East 450 518 33,000  Level Salt Lake Center
Tue 09:31:13 AM 42.3147 -117.0564 95° East 453 521 33,000  Level Salt Lake Center
Tue 09:32:15 AM 42.3006 -116.8653 96° East 455 524 33,000  Level Salt Lake Center
Tue 09:33:16 AM 42.2889 -116.6997 95° East 462 532 33,000  Level Salt Lake Center
Tue 09:34:17 AM 42.2747 -116.5086 96° East 459 528 33,000  Level Salt Lake Center
Tue 09:35:18 AM 42.2622 -116.3461 96° East 456 525 33,000  Level Salt Lake Center
Tue 09:36:20 AM 42.2494 -116.1842 96° East 453 521 33,000  Level Salt Lake Center
Tue 09:37:21 AM 42.2358 -115.9956 96° East 453 521 33,000  Level Salt Lake Center
Tue 09:38:22 AM 42.2222 -115.8361 97° East 448 516 33,000  Level Salt Lake Center
Tue 09:39:23 AM 42.2078 -115.6503 96° East 447 514 33,000  Level Salt Lake Center
Tue 09:40:25 AM 42.1939 -115.4908 97° East 449 517 33,000  Level Salt Lake Center
Tue 09:41:26 AM 42.1811 -115.3328 96° East 445 512 33,000  Level Salt Lake Center
Tue 09:42:27 AM 42.1650 -115.1483 97° East 445 512 33,000  Level Salt Lake Center
Tue 09:43:29 AM 42.1517 -114.9897 96° East 445 512 33,000  Level Salt Lake Center
Tue 09:44:30 AM 42.1356 -114.8064 97° East 447 514 33,000  Level Salt Lake Center
Tue 09:45:31 AM 42.1206 -114.6414 97° East 446 513 33,000  Level Salt Lake Center
Tue 09:46:33 AM 42.1042 -114.4772 98° East 443 510 33,000  Level Salt Lake Center
Tue 09:47:34 AM 42.0897 -114.3131 97° East 443 510 33,000  Level Salt Lake Center
Tue 09:48:36 AM 42.0742 -114.1481 97° East 445 512 33,000  Level Salt Lake Center
Tue 09:49:37 AM 42.0581 -113.9839 97° East 445 512 33,000  Level Salt Lake Center
Tue 09:50:38 AM 42.0419 -113.8186 97° East 447 514 33,000  Level Salt Lake Center
Tue 09:51:40 AM 42.0264 -113.6536 97° East 445 512 33,000  Level Salt Lake Center
Tue 09:52:41 AM 42.0050 -113.4561 98° East 446 513 33,000  Level Salt Lake Center
Tue 09:53:43 AM 41.9886 -113.2908 98° East 448 516 33,000  Level Salt Lake Center
Tue 09:54:44 AM 41.9711 -113.1267 98° East 446 513 33,000  Level Salt Lake Center
Tue 09:55:46 AM 41.9544 -112.9625 98° East 445 512 33,000  Level Salt Lake Center
Tue 09:56:47 AM 41.9361 -112.7989 99° East 443 510 33,000  Level Salt Lake Center
Tue 09:57:49 AM 41.9189 -112.6336 98° East 446 513 33,000  Level Salt Lake Center
Tue 09:58:51 AM 41.9000 -112.4692 99° East 446 513 33,000  Level Salt Lake Center
Tue 09:59:52 AM 41.8808 -112.3058 99° East 444 511 33,000  Level Salt Lake Center
Tue 10:00:54 AM 41.8617 -112.1414 99° East 445 512 33,000  Level Salt Lake Center
Tue 10:01:55 AM 41.8386 -111.9425 99° East 448 516 33,000  Level Salt Lake Center
Tue 10:02:57 AM 41.8325 -111.7778 93° East 445 512 33,000  Level Salt Lake Center
Tue 10:03:59 AM 41.8950 -111.6397 59° Northeast 445 512 33,000  Level Salt Lake Center
Tue 10:05:01 AM 41.9975 -111.5553 31° Northeast 432 497 33,000  Level Salt Lake Center
Tue 10:06:02 AM 42.1003 -111.4700 32° Northeast 434 499 33,000  Level Salt Lake Center
Tue 10:07:04 AM 42.2008 -111.3817 33° Northeast 432 497 33,000  Level Salt Lake Center
Tue 10:08:06 AM 42.3042 -111.2939 32° Northeast 437 503 33,000  Level Salt Lake Center
Tue 10:09:07 AM 42.4069 -111.2039 33° Northeast 439 505 33,000  Level Salt Lake Center
Tue 10:10:09 AM 42.5156 -111.0722 42° Northeast 441 507 33,000  Level Salt Lake Center
Tue 10:11:11 AM 42.5667 -110.9153 66° East 442 509 33,000  Level Salt Lake Center
Tue 10:12:13 AM 42.5625 -110.7553 92° East 445 512 33,000  Level Salt Lake Center
Tue 10:13:14 AM 42.5139 -110.6117 115° Southeast 442 509 33,000  Level Salt Lake Center
Tue 10:14:16 AM 42.4392 -110.4558 123° Southeast 440 506 33,000  Level Salt Lake Center
Tue 10:15:18 AM 42.3758 -110.3217 123° Southeast 444 511 33,000  Level Salt Lake Center
Tue 10:16:20 AM 42.3008 -110.1639 123° Southeast 445 512 33,000  Level Salt Lake Center
Tue 10:17:22 AM 42.2369 -110.0297 123° Southeast 445 512 33,000  Level Salt Lake Center
Tue 10:18:23 AM 42.1608 -109.8725 123° Southeast 447 514 33,000  Level Salt Lake Center
Tue 10:19:25 AM 42.0958 -109.7372 123° Southeast 448 516 33,000  Level Salt Lake Center
Tue 10:20:27 AM 42.0206 -109.5800 123° Southeast 447 514 33,000  Level Salt Lake Center
Tue 10:21:29 AM 41.9550 -109.4444 123° Southeast 450 518 33,000  Level Salt Lake Center
Tue 10:22:31 AM 41.8889 -109.3100 123° Southeast 450 518 33,000  Level Salt Lake Center
Tue 10:23:33 AM 41.8111 -109.1511 123° Southeast 453 521 33,000  Level Salt Lake Center
Tue 10:24:35 AM 41.7444 -109.0156 123° Southeast 453 521 33,000  Level Salt Lake Center
Tue 10:25:37 AM 41.6664 -108.8567 123° Southeast 453 521 33,000  Level Salt Lake Center
Tue 10:26:39 AM 41.5986 -108.7206 124° Southeast 455 524 33,000  Level Salt Lake Center
Tue 10:27:41 AM 41.5306 -108.5847 124° Southeast 455 524 33,000  Level Salt Lake Center
Tue 10:28:42 AM 41.4508 -108.4283 124° Southeast 457 526 33,000  Level Salt Lake Center
Tue 10:29:44 AM 41.3831 -108.2950 124° Southeast 454 522 33,000  Level Salt Lake Center
Tue 10:30:14 AM 41.3489 -108.2269 124° Southeast 453 521 33,000  Level Denver Center
Tue 10:31:16 AM 41.2839 -108.0611 118° Southeast 454 522 33,000  Level Denver Center
Tue 10:32:18 AM 41.2283 -107.9214 118° Southeast 449 517 33,000 -629 Level Denver Center
Tue 10:33:20 AM 41.1647 -107.7589 117° Southeast 445 512 31,700 -968 Descending Denver Center
Tue 10:34:22 AM 41.1114 -107.6244 118° Southeast 432 497 31,000 -339 Descending Denver Center
Tue 10:35:24 AM 41.0525 -107.4756 118° Southeast 411 473 31,000  Level Denver Center
Tue 10:36:26 AM 41.0053 -107.3442 115° Southeast 411 473 31,000  Level Denver Center
Tue 10:37:28 AM 40.9542 -107.1869 113° Southeast 416 479 31,000  Level Denver Center
Tue 10:38:30 AM 40.9092 -107.0528 114° Southeast 417 480 31,000  Level Denver Center
Tue 10:39:32 AM 40.8558 -106.8928 114° Southeast 424 488 31,000  Level Denver Center
Tue 10:40:35 AM 40.8108 -106.7547 113° Southeast 428 493 31,000 -288 Level Denver Center
Tue 10:41:37 AM 40.7569 -106.5936 114° Southeast 431 496 30,400 -1,065 Descending Denver Center
Tue 10:42:39 AM 40.7047 -106.4411 114° Southeast 451 519 28,800 -1,403 Descending Denver Center
Tue 10:43:41 AM 40.6572 -106.3056 115° Southeast 428 493 27,500 -1,500 Descending Denver Center
Tue 10:44:43 AM 40.6086 -106.1622 114° Southeast 386 444 25,700 -1,645 Descending Denver Center
Tue 10:45:45 AM 40.5694 -106.0436 113° Southeast 359 413 24,100 -1,548 Descending Denver Center
Tue 10:46:47 AM 40.5278 -105.9278 115° Southeast 352 405 22,500 -1,548 Descending Denver Center
Tue 10:47:49 AM 40.4892 -105.8111 113° Southeast 350 403 20,900 -1,548 Descending Denver Center
Tue 10:48:51 AM 40.4486 -105.7019 116° Southeast 336 387 19,300 -1,548 Descending Denver Center
Tue 10:49:53 AM 40.4111 -105.5919 114° Southeast 331 381 17,700 -1,113 Descending Denver Center
Tue 10:50:55 AM 40.3653 -105.4625 115° Southeast 326 375 17,000 -823 Descending Denver Center
Tue 10:51:57 AM 40.3447 -105.3481 103° East 315 362 16,000 -1,065 Descending Denver Center
Tue 10:52:59 AM 40.3294 -105.2347 100° East 317 365 14,800 -1,065 Descending Denver Center
Tue 10:54:01 AM 40.3136 -105.1239 101° East 311 358 13,800 -968 Descending Denver Center
Tue 10:55:03 AM 40.2839 -105.0142 110° East 301 346 12,800 -1,016 Descending Denver Center
Tue 10:56:05 AM 40.2364 -104.9331 127° Southeast 278 320 11,700 -1,152 Descending Denver Center
Tue 10:57:08 AM 40.1914 -104.8544 127° Southeast 253 291 10,400 -1,104 Descending Denver Center
Tue 10:58:10 AM 40.1533 -104.7833 125° Southeast 241 277 9,400 -774 Descending Denver Center
Tue 10:59:12 AM 40.0956 -104.7522 158° South 209 241 8,800 -677 Descending Denver Center
Tue 11:00:14 AM 40.0467 -104.7261 158° South 193 222 8,000 -774 Descending Denver Center

Login

Don't have an account? Register now (free) for customized features, flight alerts, and more!